createdAt,value
2017-08-05T00:00:54.867Z,100902.48
2017-08-05T00:03:22.495Z,100886.30
2017-08-05T00:05:50.107Z,100884.95
2017-08-05T00:08:17.767Z,100887.86
2017-08-05T00:10:45.419Z,100905.14
2017-08-05T00:13:13.198Z,100897.94
2017-08-05T00:15:40.794Z,100893.42
2017-08-05T00:18:08.419Z,100914.59
2017-08-05T00:20:36.019Z,100895.20
2017-08-05T00:23:03.661Z,100892.61
2017-08-05T00:25:31.242Z,100900.48
2017-08-05T00:27:58.938Z,100894.72
2017-08-05T00:30:26.553Z,100891.25
2017-08-05T00:32:54.177Z,100889.56
2017-08-05T00:35:21.833Z,100893.44
2017-08-05T00:37:49.438Z,100892.16
2017-08-05T00:40:17.059Z,100888.40
2017-08-05T00:42:44.690Z,100887.50
2017-08-05T00:45:12.289Z,100893.27
2017-08-05T00:47:39.912Z,100887.04
2017-08-05T00:50:07.511Z,100888.37
2017-08-05T00:52:35.139Z,100884.78
2017-08-05T00:55:02.769Z,100877.15
2017-08-05T00:57:30.398Z,100876.23
2017-08-05T00:59:57.995Z,100883.41
2017-08-05T01:02:25.623Z,100874.92
2017-08-05T01:04:53.203Z,100872.36
2017-08-05T01:07:20.833Z,100871.33
2017-08-05T01:09:48.428Z,100881.26
2017-08-05T01:12:16.043Z,100881.83
2017-08-05T01:14:43.646Z,100892.31
2017-08-05T01:17:11.259Z,100889.86
2017-08-05T01:19:38.857Z,100889.86
2017-08-05T01:22:07.052Z,100894.19
2017-08-05T01:24:34.667Z,100894.42
2017-08-05T01:27:02.295Z,100894.83
2017-08-05T01:29:29.961Z,100900.42
2017-08-05T01:31:57.578Z,100904.02
2017-08-05T01:34:25.178Z,100906.28
2017-08-05T01:36:52.943Z,100897.25
2017-08-05T01:39:20.537Z,100893.09
2017-08-05T01:41:48.134Z,100890.53
2017-08-05T01:44:15.773Z,100887.06
2017-08-05T01:46:43.370Z,100892.98
2017-08-05T01:49:10.990Z,100899.14
2017-08-05T01:51:41.369Z,100901.19
2017-08-05T01:54:09.010Z,100902.13
2017-08-05T01:56:36.606Z,100900.13
2017-08-05T01:59:04.211Z,100901.92
2017-08-05T02:01:31.798Z,100899.84
2017-08-05T02:03:59.437Z,100902.39
2017-08-05T02:06:27.043Z,100893.45
2017-08-05T02:08:54.687Z,100889.22
2017-08-05T02:11:22.278Z,100887.78
2017-08-05T02:13:49.894Z,100887.78
2017-08-05T02:16:17.486Z,100889.16
2017-08-05T02:18:45.118Z,100894.59
2017-08-05T02:21:12.717Z,100895.63
2017-08-05T02:23:40.346Z,100899.49
2017-08-05T02:26:07.947Z,100904.27
2017-08-05T02:28:35.538Z,100909.32
2017-08-05T02:31:03.180Z,100907.46
2017-08-05T02:33:30.774Z,100899.80
2017-08-05T02:35:58.399Z,100892.91
2017-08-05T02:38:26.078Z,100885.97
2017-08-05T02:40:53.710Z,100887.23
2017-08-05T02:43:21.331Z,100875.72
2017-08-05T02:45:48.957Z,100870.92
2017-08-05T02:48:16.549Z,100863.63
2017-08-05T02:50:44.287Z,100873.05
2017-08-05T02:53:12.017Z,100873.78
2017-08-05T02:55:39.838Z,100867.78
2017-08-05T02:58:07.430Z,100880.41
2017-08-05T03:00:35.054Z,100877.23
2017-08-05T03:03:02.647Z,100887.20
2017-08-05T03:05:30.273Z,100877.94
2017-08-05T03:07:57.910Z,100878.99
2017-08-05T03:10:25.534Z,100875.79
2017-08-05T03:12:53.130Z,100879.80
2017-08-05T03:15:20.755Z,100865.32
2017-08-05T03:17:48.349Z,100861.53
2017-08-05T03:20:15.965Z,100856.66
2017-08-05T03:22:43.567Z,100853.03
2017-08-05T03:25:11.198Z,100845.19
2017-08-05T03:27:38.808Z,100848.85
2017-08-05T03:30:06.459Z,100841.45
2017-08-05T03:32:34.045Z,100849.91
2017-08-05T03:35:01.710Z,100842.89
2017-08-05T03:37:29.327Z,100836.80
2017-08-05T03:39:56.940Z,100831.50
2017-08-05T03:42:24.528Z,100837.19
2017-08-05T03:44:52.162Z,100836.38
2017-08-05T03:47:19.770Z,100839.96
2017-08-05T03:49:47.400Z,100838.44
2017-08-05T03:52:14.987Z,100840.52
2017-08-05T03:54:42.612Z,100839.33
2017-08-05T03:57:10.201Z,100845.80
2017-08-05T03:59:37.852Z,100846.26
2017-08-05T04:02:05.439Z,100851.87
2017-08-05T04:04:33.082Z,100861.39
2017-08-05T04:07:00.670Z,100867.25
2017-08-05T04:09:28.291Z,100865.98
2017-08-05T04:11:55.947Z,100864.06
2017-08-05T04:14:23.569Z,100861.23
2017-08-05T04:16:51.164Z,100860.91
2017-08-05T04:19:18.786Z,100861.56
2017-08-05T04:21:46.418Z,100857.91
2017-08-05T04:24:14.019Z,100845.97
2017-08-05T04:26:41.637Z,100841.44
2017-08-05T04:29:09.244Z,100838.20
2017-08-05T04:31:36.879Z,100840.09
2017-08-05T04:34:04.583Z,100831.41
2017-08-05T04:36:32.215Z,100821.64
2017-08-05T04:38:59.878Z,100821.75
2017-08-05T04:41:27.506Z,100827.27
2017-08-05T04:43:55.099Z,100818.36
2017-08-05T04:46:22.726Z,100820.30
2017-08-05T04:48:50.330Z,100808.77
2017-08-05T04:51:17.958Z,100805.41
2017-08-05T04:53:45.550Z,100808.09
2017-08-05T04:56:13.194Z,100807.53
2017-08-05T04:58:40.779Z,100806.63
2017-08-05T05:01:08.427Z,100798.64
2017-08-05T05:03:36.018Z,100801.96
2017-08-05T05:06:03.686Z,100793.12
2017-08-05T05:08:31.274Z,100787.14
2017-08-05T05:10:58.902Z,100783.14
2017-08-05T05:13:26.534Z,100786.87
2017-08-05T05:15:54.163Z,100798.86
2017-08-05T05:18:21.767Z,100800.98
2017-08-05T05:20:49.406Z,100803.59
2017-08-05T05:23:17.029Z,100811.70
2017-08-05T05:25:44.607Z,100803.14
2017-08-05T05:28:12.235Z,100797.13
2017-08-05T05:30:39.826Z,100781.56
2017-08-05T05:33:07.471Z,100783.48
2017-08-05T05:35:35.058Z,100784.11
2017-08-05T05:38:02.653Z,100790.98
2017-08-05T05:40:30.327Z,100788.92
2017-08-05T05:42:57.948Z,100782.30
2017-08-05T05:45:25.553Z,100793.67
2017-08-05T05:47:53.251Z,100808.64
2017-08-05T05:50:20.840Z,100812.74
2017-08-05T05:52:48.462Z,100804.98
2017-08-05T05:55:16.067Z,100795.32
2017-08-05T05:57:43.693Z,100805.52
2017-08-05T06:00:11.286Z,100809.08
2017-08-05T06:02:38.908Z,100799.89
2017-08-05T06:05:06.545Z,100800.86
2017-08-05T06:07:34.177Z,100795.25
2017-08-05T06:10:01.767Z,100786.41
2017-08-05T06:12:29.394Z,100786.56
2017-08-05T06:14:57.075Z,100794.83
2017-08-05T06:17:24.703Z,100789.19
2017-08-05T06:19:52.322Z,100784.48
2017-08-05T06:22:19.952Z,100783.70
2017-08-05T06:24:47.575Z,100778.22
2017-08-05T06:27:15.242Z,100778.28
2017-08-05T06:29:42.854Z,100775.41
2017-08-05T06:32:10.584Z,100773.39
2017-08-05T06:34:38.205Z,100769.61
2017-08-05T06:37:05.810Z,100776.26
2017-08-05T06:39:33.399Z,100765.38
2017-08-05T06:42:01.093Z,100760.70
2017-08-05T06:44:28.711Z,100767.33
2017-08-05T06:46:56.338Z,100778.88
2017-08-05T06:49:23.922Z,100782.07
2017-08-05T06:51:51.546Z,100775.44
2017-08-05T06:54:19.151Z,100782.48
2017-08-05T06:56:46.781Z,100787.66
2017-08-05T06:59:14.358Z,100770.83
2017-08-05T07:01:42.005Z,100767.71
2017-08-05T07:04:09.635Z,100769.95
2017-08-05T07:06:37.253Z,100770.05
2017-08-05T07:09:04.850Z,100780.33
2017-08-05T07:11:32.486Z,100779.92
2017-08-05T07:14:00.081Z,100781.94
2017-08-05T07:16:27.712Z,100787.27
2017-08-05T07:18:55.330Z,100794.31
2017-08-05T07:21:22.982Z,100800.71
2017-08-05T07:23:50.590Z,100797.25
2017-08-05T07:26:18.181Z,100787.64
2017-08-05T07:28:45.842Z,100793.73
2017-08-05T07:31:13.433Z,100807.20
2017-08-05T07:33:41.063Z,100800.69
2017-08-05T07:36:08.683Z,100803.55
2017-08-05T07:38:36.310Z,100806.87
2017-08-05T07:41:03.904Z,100813.45
2017-08-05T07:43:31.580Z,100798.12
2017-08-05T07:45:59.170Z,100797.22
2017-08-05T07:48:26.802Z,100801.55
2017-08-05T07:50:54.387Z,100803.02
2017-08-05T07:53:22.047Z,100799.58
2017-08-05T07:55:49.633Z,100805.53
2017-08-05T07:58:17.248Z,100806.09
2017-08-05T08:00:44.915Z,100812.87
2017-08-05T08:03:12.555Z,100808.66
2017-08-05T08:05:40.154Z,100803.91
2017-08-05T08:08:07.790Z,100799.78
2017-08-05T08:10:35.387Z,100791.69
2017-08-05T08:13:03.050Z,100793.67
2017-08-05T08:15:30.654Z,100796.56
2017-08-05T08:17:58.270Z,100807.58
2017-08-05T08:20:25.887Z,100797.45
2017-08-05T08:22:53.578Z,100800.98
2017-08-05T08:25:21.229Z,100802.59
2017-08-05T08:27:48.829Z,100798.69
2017-08-05T08:30:16.458Z,100801.14
2017-08-05T08:32:44.062Z,100803.63
2017-08-05T08:35:11.699Z,100808.12
2017-08-05T08:37:39.294Z,100815.59
2017-08-05T08:40:06.932Z,100807.88
2017-08-05T08:42:34.549Z,100807.03
2017-08-05T08:45:02.182Z,100814.81
2017-08-05T08:47:29.811Z,100816.27
2017-08-05T08:49:57.441Z,100822.31
2017-08-05T08:52:25.034Z,100823.34
2017-08-05T08:54:52.706Z,100825.16
2017-08-05T08:57:20.330Z,100826.91
2017-08-05T08:59:47.963Z,100823.36
2017-08-05T09:02:15.549Z,100829.80
2017-08-05T09:04:43.179Z,100834.56
2017-08-05T09:07:10.810Z,100838.39
2017-08-05T09:09:38.447Z,100850.70
2017-08-05T09:12:06.054Z,100847.00
2017-08-05T09:14:33.694Z,100848.88
2017-08-05T09:17:01.310Z,100851.00
2017-08-05T09:19:28.920Z,100853.81
2017-08-05T09:21:56.537Z,100855.58
2017-08-05T09:24:24.144Z,100850.63
2017-08-05T09:26:51.783Z,100858.25
2017-08-05T09:29:19.396Z,100858.59
2017-08-05T09:31:47.035Z,100853.74
2017-08-05T09:34:14.620Z,100856.83
2017-08-05T09:36:42.260Z,100864.66
2017-08-05T09:39:09.862Z,100867.09
2017-08-05T09:41:37.609Z,100870.03
2017-08-05T09:44:05.418Z,100869.76
2017-08-05T09:46:33.050Z,100878.84
2017-08-05T09:49:00.662Z,100886.08
2017-08-05T09:51:28.316Z,100882.38
2017-08-05T09:53:55.918Z,100889.16
2017-08-05T09:56:24.409Z,100896.02
2017-08-05T09:58:52.077Z,100896.76
2017-08-05T10:01:19.739Z,100901.19
2017-08-05T10:03:47.489Z,100911.26
2017-08-05T10:06:15.110Z,100909.80
2017-08-05T10:08:43.075Z,100905.94
2017-08-05T10:11:10.804Z,100920.80
2017-08-05T10:13:38.528Z,100918.27
2017-08-05T10:16:06.204Z,100925.30
2017-08-05T10:18:33.816Z,100930.92
2017-08-05T10:21:01.476Z,100931.38
2017-08-05T10:23:29.095Z,100934.95
2017-08-05T10:25:58.551Z,100932.19
2017-08-05T10:28:26.292Z,100935.24
2017-08-05T10:30:53.912Z,100939.67
2017-08-05T10:33:21.561Z,100940.78
2017-08-05T10:35:49.173Z,100938.27
2017-08-05T10:38:16.928Z,100938.73
2017-08-05T10:40:44.539Z,100944.46
2017-08-05T10:43:12.188Z,100943.75
2017-08-05T10:45:39.809Z,100936.24
2017-08-05T10:48:07.470Z,100941.05
2017-08-05T10:50:35.101Z,100936.12
2017-08-05T10:53:02.897Z,100934.25
2017-08-05T10:55:30.519Z,100941.61
2017-08-05T10:57:58.176Z,100949.95
2017-08-05T11:00:25.789Z,100935.31
2017-08-05T11:02:53.545Z,100943.45
2017-08-05T11:05:21.161Z,100944.92
2017-08-05T11:07:48.804Z,100939.09
2017-08-05T11:10:16.449Z,100943.30
2017-08-05T11:12:44.119Z,100944.45
2017-08-05T11:15:11.745Z,100950.90
2017-08-05T11:17:39.389Z,100957.55
2017-08-05T11:20:07.009Z,100948.91
2017-08-05T11:22:34.660Z,100948.60
2017-08-05T11:25:02.284Z,100951.56
2017-08-05T11:27:29.927Z,100955.33
2017-08-05T11:29:57.537Z,100956.22
2017-08-05T11:32:25.184Z,100958.58
2017-08-05T11:34:52.820Z,100955.22
2017-08-05T11:37:20.473Z,100968.16
2017-08-05T11:39:48.089Z,100962.26
2017-08-05T11:42:15.728Z,100960.75
2017-08-05T11:44:43.353Z,100963.81
2017-08-05T11:47:10.996Z,100971.31
2017-08-05T11:49:38.615Z,100969.97
2017-08-05T11:52:06.271Z,100969.71
2017-08-05T11:54:33.922Z,100973.03
2017-08-05T11:57:01.620Z,100973.22
2017-08-05T11:59:29.249Z,100977.19
2017-08-05T12:01:56.924Z,100985.52
2017-08-05T12:04:24.547Z,100981.12
2017-08-05T12:06:52.175Z,100983.13
2017-08-05T12:09:19.793Z,100991.49
2017-08-05T12:11:47.455Z,100984.27
2017-08-05T12:14:15.079Z,100986.02
2017-08-05T12:16:42.731Z,100990.52
2017-08-05T12:19:10.408Z,100993.95
2017-08-05T12:21:38.032Z,100987.72
2017-08-05T12:24:05.675Z,100996.66
2017-08-05T12:26:33.289Z,100999.91
2017-08-05T12:29:00.928Z,101003.44
2017-08-05T12:31:28.568Z,100998.64
2017-08-05T12:33:56.312Z,100997.68
2017-08-05T12:36:23.925Z,101001.62
2017-08-05T12:38:51.562Z,100989.77
2017-08-05T12:41:19.191Z,100993.41
2017-08-05T12:43:46.848Z,100997.51
2017-08-05T12:46:14.449Z,100998.98
2017-08-05T12:48:42.097Z,100995.74
2017-08-05T12:51:09.719Z,100999.84
2017-08-05T12:53:37.379Z,101001.15
2017-08-05T12:56:04.999Z,101003.96
2017-08-05T12:58:32.623Z,101003.37
2017-08-05T13:01:00.272Z,101003.96
2017-08-05T13:03:27.895Z,101003.88
2017-08-05T13:05:55.524Z,100991.23
2017-08-05T13:08:23.252Z,100999.84
2017-08-05T13:10:50.918Z,101004.20
2017-08-05T13:13:18.520Z,101008.77
2017-08-05T13:15:46.170Z,101002.56
2017-08-05T13:18:13.808Z,101004.44
2017-08-05T13:20:41.451Z,101004.78
2017-08-05T13:23:09.085Z,101003.55
2017-08-05T13:25:36.728Z,101001.11
2017-08-05T13:28:04.347Z,101000.73
2017-08-05T13:30:31.999Z,101007.94
2017-08-05T13:32:59.608Z,101006.78
2017-08-05T13:35:27.236Z,101010.95
2017-08-05T13:37:54.939Z,101004.82
2017-08-05T13:40:22.564Z,101011.17
2017-08-05T13:42:50.225Z,101006.42
2017-08-05T13:45:17.828Z,101006.53
2017-08-05T13:47:45.468Z,101012.27
2017-08-05T13:50:13.076Z,101017.25
2017-08-05T13:52:40.714Z,101018.33
2017-08-05T13:55:08.327Z,101024.02
2017-08-05T13:57:35.994Z,101027.84
2017-08-05T14:00:03.588Z,101027.85
2017-08-05T14:02:31.220Z,101025.55
2017-08-05T14:04:58.835Z,101030.48
2017-08-05T14:07:26.480Z,101030.59
2017-08-05T14:09:54.087Z,101029.77
2017-08-05T14:12:21.720Z,101028.66
2017-08-05T14:14:49.333Z,101025.36
2017-08-05T14:17:16.976Z,101028.88
2017-08-05T14:19:44.573Z,101015.12
2017-08-05T14:22:12.236Z,101013.47
2017-08-05T14:24:39.844Z,101006.58
2017-08-05T14:27:07.444Z,101012.44
2017-08-05T14:29:35.070Z,101013.89
2017-08-05T14:32:02.660Z,101010.63
2017-08-05T14:34:30.292Z,101015.07
2017-08-05T14:36:57.871Z,101011.59
2017-08-05T14:39:25.514Z,101012.87
2017-08-05T14:41:53.111Z,101023.02
2017-08-05T14:44:20.762Z,101015.69
2017-08-05T14:46:48.379Z,101018.49
2017-08-05T14:49:16.027Z,101022.91
2017-08-05T14:51:44.764Z,101026.48
2017-08-05T14:54:12.455Z,101034.88
2017-08-05T14:56:40.083Z,101028.38
2017-08-05T14:59:07.706Z,101033.74
2017-08-05T15:01:35.362Z,101031.95
2017-08-05T15:04:03.019Z,101038.76
2017-08-05T15:06:30.634Z,101039.91
2017-08-05T15:08:58.275Z,101037.37
2017-08-05T15:11:26.913Z,101037.59
2017-08-05T15:13:54.624Z,101040.59
2017-08-05T15:16:22.250Z,101052.97
2017-08-05T15:18:49.948Z,101072.89
2017-08-05T15:21:17.580Z,101069.67
2017-08-05T15:23:45.219Z,101077.55
2017-08-05T15:26:12.874Z,101084.69
2017-08-05T15:28:40.504Z,101085.83
2017-08-05T15:31:08.119Z,101077.16
2017-08-05T15:33:35.748Z,101077.31
2017-08-05T15:36:03.356Z,101079.41
2017-08-05T15:38:31.016Z,101084.90
2017-08-05T15:40:58.664Z,101088.06
2017-08-05T15:43:26.327Z,101088.05
2017-08-05T15:45:53.999Z,101098.91
2017-08-05T15:48:21.594Z,101102.84
2017-08-05T15:50:49.223Z,101107.18
2017-08-05T15:53:16.822Z,101099.20
2017-08-05T15:55:44.466Z,101101.23
2017-08-05T15:58:12.078Z,101106.66
2017-08-05T16:00:39.736Z,101107.03
2017-08-05T16:03:07.356Z,101104.31
2017-08-05T16:05:34.979Z,101091.08
2017-08-05T16:08:02.600Z,101099.24
2017-08-05T16:10:30.287Z,101100.77
2017-08-05T16:12:57.889Z,101096.00
2017-08-05T16:15:25.548Z,101102.48
2017-08-05T16:17:53.147Z,101104.73
2017-08-05T16:20:20.739Z,101107.66
2017-08-05T16:22:48.380Z,101111.73
2017-08-05T16:25:16.015Z,101117.30
2017-08-05T16:27:43.626Z,101120.86
2017-08-05T16:30:11.244Z,101128.78
2017-08-05T16:32:38.876Z,101137.73
2017-08-05T16:35:07.908Z,101139.69
2017-08-05T16:37:35.573Z,101138.40
2017-08-05T16:40:03.184Z,101137.14
2017-08-05T16:42:30.877Z,101145.89
2017-08-05T16:44:58.492Z,101140.41
2017-08-05T16:47:26.122Z,101148.77
2017-08-05T16:49:53.715Z,101151.67
2017-08-05T16:52:21.363Z,101161.33
2017-08-05T16:54:49.010Z,101160.73
2017-08-05T16:57:16.651Z,101159.79
2017-08-05T16:59:44.258Z,101161.26
2017-08-05T17:02:11.981Z,101163.47
2017-08-05T17:04:39.686Z,101167.78
2017-08-05T17:07:07.326Z,101175.27
2017-08-05T17:09:34.918Z,101177.01
2017-08-05T17:12:02.566Z,101183.34
2017-08-05T17:14:30.225Z,101194.09
2017-08-05T17:16:58.082Z,101191.76
2017-08-05T17:19:25.779Z,101191.91
2017-08-05T17:21:54.179Z,101205.67
2017-08-05T17:24:21.803Z,101203.91
2017-08-05T17:26:49.469Z,101204.18
2017-08-05T17:29:17.376Z,101203.75
2017-08-05T17:31:45.035Z,101203.08
2017-08-05T17:34:12.677Z,101206.45
2017-08-05T17:36:40.303Z,101205.31
2017-08-05T17:39:07.891Z,101206.47
2017-08-05T17:41:35.604Z,101198.98
2017-08-05T17:44:03.223Z,101203.13
2017-08-05T17:46:30.887Z,101207.83
2017-08-05T17:48:58.614Z,101208.74
2017-08-05T17:51:26.208Z,101215.96
2017-08-05T17:53:53.826Z,101216.96
2017-08-05T17:56:21.512Z,101213.89
2017-08-05T17:58:49.119Z,101212.58
2017-08-05T18:01:16.730Z,101214.72
2017-08-05T18:03:44.410Z,101208.51
2017-08-05T18:06:11.998Z,101217.53
2017-08-05T18:08:39.653Z,101218.70
2017-08-05T18:11:07.295Z,101217.01
2017-08-05T18:13:34.913Z,101222.91
2017-08-05T18:16:02.514Z,101223.34
2017-08-05T18:18:30.188Z,101227.92
2017-08-05T18:20:57.804Z,101237.44
2017-08-05T18:23:25.542Z,101235.59
2017-08-05T18:25:53.349Z,101242.47
2017-08-05T18:28:21.005Z,101241.95
2017-08-05T18:30:48.722Z,101244.67
2017-08-05T18:33:16.393Z,101255.73
2017-08-05T18:35:43.982Z,101254.27
2017-08-05T18:38:14.470Z,101256.66
2017-08-05T18:40:42.084Z,101260.34
2017-08-05T18:43:09.744Z,101264.88
2017-08-05T18:45:37.357Z,101262.22
2017-08-05T18:48:05.024Z,101273.65
2017-08-05T18:50:32.652Z,101274.28
2017-08-05T18:53:00.336Z,101279.48
2017-08-05T18:55:27.943Z,101281.30
2017-08-05T18:57:55.603Z,101282.06
2017-08-05T19:00:23.275Z,101282.06
2017-08-05T19:02:50.925Z,101277.95
2017-08-05T19:05:18.550Z,101277.48
2017-08-05T19:07:46.254Z,101281.66
2017-08-05T19:10:14.442Z,101282.16
2017-08-05T19:12:42.122Z,101278.70
2017-08-05T19:15:10.153Z,101285.98
2017-08-05T19:17:37.907Z,101279.18
2017-08-05T19:20:05.530Z,101281.15
2017-08-05T19:22:33.223Z,101277.20
2017-08-05T19:25:00.854Z,101277.81
2017-08-05T19:27:28.529Z,101273.44
2017-08-05T19:29:56.272Z,101264.42
2017-08-05T19:32:23.927Z,101264.34
2017-08-05T19:34:51.743Z,101267.52
2017-08-05T19:37:19.343Z,101275.61
2017-08-05T19:39:46.979Z,101295.36
2017-08-05T19:42:14.631Z,101306.06
2017-08-05T19:44:42.239Z,101311.55
2017-08-05T19:47:09.898Z,101320.89
2017-08-05T19:49:37.506Z,101327.02
2017-08-05T19:52:05.142Z,101329.43
2017-08-05T19:54:32.771Z,101331.09
2017-08-05T19:57:00.405Z,101332.42
2017-08-05T19:59:28.023Z,101332.06
2017-08-05T20:01:55.693Z,101340.55
2017-08-05T20:04:23.323Z,101342.34
2017-08-05T20:06:50.931Z,101336.76
2017-08-05T20:09:18.585Z,101340.97
2017-08-05T20:11:46.215Z,101336.00
2017-08-05T20:14:13.875Z,101333.81
2017-08-05T20:16:41.536Z,101336.95
2017-08-05T20:19:09.147Z,101347.95
2017-08-05T20:21:36.791Z,101343.94
2017-08-05T20:24:04.433Z,101343.14
2017-08-05T20:26:32.107Z,101348.30
2017-08-05T20:28:59.735Z,101341.22
2017-08-05T20:31:27.371Z,101346.36
2017-08-05T20:33:55.025Z,101349.31
2017-08-05T20:36:22.615Z,101346.49
2017-08-05T20:38:50.314Z,101343.56
2017-08-05T20:41:17.913Z,101351.16
2017-08-05T20:43:45.563Z,101356.20
2017-08-05T20:46:13.166Z,101354.44
2017-08-05T20:48:40.801Z,101365.34
2017-08-05T20:51:08.407Z,101364.03
2017-08-05T20:53:36.065Z,101359.77
2017-08-05T20:56:03.618Z,101368.78
2017-08-05T20:58:31.266Z,101362.91
2017-08-05T21:00:58.916Z,101368.43
2017-08-05T21:03:26.554Z,101367.75
2017-08-05T21:05:54.178Z,101368.45
2017-08-05T21:08:21.795Z,101366.95
2017-08-05T21:10:49.440Z,101371.00
2017-08-05T21:13:17.037Z,101368.09
2017-08-05T21:15:44.682Z,101379.05
2017-08-05T21:18:12.297Z,101382.76
2017-08-05T21:20:39.932Z,101386.55
2017-08-05T21:23:07.551Z,101390.48
2017-08-05T21:25:35.193Z,101396.70
2017-08-05T21:28:02.814Z,101404.09
2017-08-05T21:30:30.459Z,101410.39
2017-08-05T21:32:58.062Z,101414.31
2017-08-05T21:35:25.713Z,101424.95
2017-08-05T21:37:53.316Z,101436.62
2017-08-05T21:40:20.974Z,101432.56
2017-08-05T21:42:48.591Z,101423.60
2017-08-05T21:45:16.224Z,101417.58
2017-08-05T21:47:43.814Z,101420.09
2017-08-05T21:50:11.443Z,101424.16
2017-08-05T21:52:39.061Z,101420.44
2017-08-05T21:55:06.686Z,101414.13
2017-08-05T21:57:34.288Z,101410.97
2017-08-05T22:00:01.914Z,101406.44
2017-08-05T22:02:29.546Z,101411.66
2017-08-05T22:04:57.155Z,101410.87
2017-08-05T22:07:24.787Z,101409.59
2017-08-05T22:09:52.386Z,101410.77
2017-08-05T22:12:20.022Z,101415.58
2017-08-05T22:14:47.611Z,101412.97
2017-08-05T22:17:15.350Z,101417.73
2017-08-05T22:19:42.935Z,101413.20
2017-08-05T22:22:10.571Z,101413.20
2017-08-05T22:24:38.230Z,101416.86
2017-08-05T22:27:05.910Z,101426.50
2017-08-05T22:29:33.502Z,101424.35
2017-08-05T22:32:01.106Z,101424.02
2017-08-05T22:34:28.807Z,101424.30
2017-08-05T22:36:56.404Z,101426.89
2017-08-05T22:39:24.086Z,101434.37
2017-08-05T22:41:51.686Z,101436.48
2017-08-05T22:44:19.376Z,101440.42
2017-08-05T22:46:46.970Z,101439.02
2017-08-05T22:49:14.595Z,101441.34
2017-08-05T22:51:42.182Z,101454.17
2017-08-05T22:54:09.832Z,101451.02
2017-08-05T22:56:37.431Z,101459.67
2017-08-05T22:59:05.090Z,101462.77
2017-08-05T23:01:32.754Z,101465.38
2017-08-05T23:04:00.382Z,101464.88
2017-08-05T23:06:28.055Z,101471.22
2017-08-05T23:08:55.730Z,101468.97
2017-08-05T23:11:24.978Z,101474.70
2017-08-05T23:13:52.583Z,101470.35
2017-08-05T23:16:20.214Z,101478.30
2017-08-05T23:18:47.816Z,101469.03
2017-08-05T23:21:15.465Z,101474.65
2017-08-05T23:23:43.063Z,101476.02
2017-08-05T23:26:10.808Z,101472.23
2017-08-05T23:28:38.415Z,101475.86
2017-08-05T23:31:06.026Z,101480.19
2017-08-05T23:33:33.619Z,101477.87
2017-08-05T23:36:01.258Z,101484.06
2017-08-05T23:38:28.865Z,101484.89
2017-08-05T23:40:56.495Z,101496.33
2017-08-05T23:43:24.102Z,101491.51
2017-08-05T23:45:51.738Z,101494.78
2017-08-05T23:48:19.375Z,101493.72
2017-08-05T23:50:47.014Z,101494.80
2017-08-05T23:53:14.615Z,101505.92
2017-08-05T23:55:42.246Z,101504.87
2017-08-05T23:58:09.858Z,101513.14
